createdAt,value
2023-05-14T00:00:08.616Z,12.76
2023-05-14T00:02:39.102Z,12.69
2023-05-14T00:05:05.922Z,12.66
2023-05-14T00:07:32.593Z,12.63
2023-05-14T00:09:59.999Z,12.60
2023-05-14T00:12:30.114Z,12.58
2023-05-14T00:14:56.804Z,12.56
2023-05-14T00:17:25.815Z,12.52
2023-05-14T00:19:55.055Z,12.51
2023-05-14T00:22:24.021Z,12.49
2023-05-14T00:24:56.437Z,12.46
2023-05-14T00:27:22.900Z,12.44
2023-05-14T00:29:52.425Z,12.42
2023-05-14T00:32:21.612Z,12.43
2023-05-14T00:34:48.004Z,12.37
2023-05-14T00:37:17.409Z,12.36
2023-05-14T00:39:43.898Z,12.34
2023-05-14T00:42:10.353Z,12.34
2023-05-14T00:44:42.418Z,12.32
2023-05-14T00:47:09.037Z,12.28
2023-05-14T00:49:35.758Z,12.28
2023-05-14T00:52:06.034Z,12.28
2023-05-14T00:54:32.886Z,12.26
2023-05-14T00:57:00.142Z,12.22
2023-05-14T00:59:35.893Z,12.21
2023-05-14T01:02:02.404Z,12.19
2023-05-14T01:04:31.919Z,12.19
2023-05-14T01:07:25.941Z,12.16
2023-05-14T01:10:08.503Z,12.10
2023-05-14T01:12:57.320Z,12.06
2023-05-14T01:15:32.570Z,12.04
2023-05-14T01:18:10.820Z,12.00
2023-05-14T01:20:46.664Z,12.00
2023-05-14T01:23:13.039Z,11.99
2023-05-14T01:25:42.162Z,11.98
2023-05-14T01:28:26.481Z,11.97
2023-05-14T01:33:53.486Z,11.91
2023-05-14T01:36:20.207Z,11.92
2023-05-14T01:38:55.109Z,11.88
2023-05-14T01:41:22.997Z,11.87
2023-05-14T01:43:51.419Z,11.86
2023-05-14T01:46:20.635Z,11.84
2023-05-14T01:48:47.032Z,11.80
2023-05-14T01:51:18.521Z,11.79
2023-05-14T01:53:44.907Z,11.76
2023-05-14T01:56:11.315Z,11.74
2023-05-14T01:58:37.656Z,11.73
2023-05-14T02:01:04.266Z,11.69
2023-05-14T02:03:35.089Z,11.68
2023-05-14T02:08:46.647Z,11.65
2023-05-14T02:11:16.531Z,11.63
2023-05-14T02:13:43.751Z,11.62
2023-05-14T02:16:15.605Z,11.59
2023-05-14T02:18:42.005Z,11.53
2023-05-14T02:21:08.424Z,11.53
2023-05-14T02:23:42.275Z,11.51
2023-05-14T02:26:10.624Z,11.49
2023-05-14T02:28:47.142Z,11.47
2023-05-14T02:31:17.684Z,11.45
2023-05-14T02:33:47.957Z,11.44
2023-05-14T02:36:14.299Z,11.42
2023-05-14T02:38:44.514Z,11.40
2023-05-14T02:41:10.857Z,11.40
2023-05-14T02:43:37.234Z,11.40
2023-05-14T02:46:16.889Z,11.39
2023-05-14T02:48:45.197Z,11.38
2023-05-14T02:51:19.369Z,11.37
2023-05-14T02:53:46.267Z,11.34
2023-05-14T02:56:18.368Z,11.34
2023-05-14T02:58:44.713Z,11.30
2023-05-14T03:01:16.857Z,11.28
2023-05-14T03:03:47.690Z,11.28
2023-05-14T03:06:22.971Z,11.29
2023-05-14T03:08:49.296Z,11.27
2023-05-14T03:11:27.901Z,11.25
2023-05-14T03:13:54.271Z,11.22
2023-05-14T03:16:28.646Z,11.22
2023-05-14T03:18:55.117Z,11.18
2023-05-14T03:24:10.229Z,11.17
2023-05-14T03:26:40.324Z,11.20
2023-05-14T03:29:12.939Z,11.18
2023-05-14T03:31:43.665Z,11.17
2023-05-14T03:34:13.488Z,11.17
2023-05-14T03:36:43.020Z,11.17
2023-05-14T03:39:52.712Z,11.15
2023-05-14T03:42:17.910Z,11.15
2023-05-14T03:44:47.302Z,11.15
2023-05-14T03:47:16.074Z,11.15
2023-05-14T03:49:48.406Z,11.19
2023-05-14T03:52:14.798Z,11.22
2023-05-14T03:54:49.535Z,11.21
2023-05-14T03:57:15.911Z,11.20
2023-05-14T03:59:45.187Z,11.20
2023-05-14T04:02:14.421Z,11.22
2023-05-14T04:04:42.191Z,11.23
2023-05-14T04:07:11.516Z,11.28
2023-05-14T04:09:40.801Z,11.28
2023-05-14T04:12:15.616Z,11.29
2023-05-14T04:14:42.007Z,11.34
2023-05-14T04:17:08.595Z,11.32
2023-05-14T04:19:39.335Z,11.35
2023-05-14T04:22:06.295Z,11.36
2023-05-14T04:24:32.703Z,11.42
2023-05-14T04:27:00.646Z,11.50
2023-05-14T04:29:29.989Z,11.56
2023-05-14T04:31:56.353Z,11.78
2023-05-14T04:34:27.256Z,12.03
2023-05-14T04:36:53.585Z,12.07
2023-05-14T04:39:19.908Z,12.16
2023-05-14T04:41:49.311Z,12.20
2023-05-14T04:44:18.586Z,12.41
2023-05-14T04:46:44.905Z,12.51
2023-05-14T04:49:15.391Z,12.85
2023-05-14T04:51:41.747Z,13.67
2023-05-14T04:54:08.168Z,13.66
2023-05-14T04:56:43.447Z,13.89
2023-05-14T04:59:09.834Z,14.79
2023-05-14T05:04:22.252Z,15.84
2023-05-14T05:06:51.753Z,15.84
2023-05-14T05:09:25.707Z,16.08
2023-05-14T05:11:55.149Z,15.54
2023-05-14T05:14:44.777Z,15.70
2023-05-14T05:17:11.171Z,15.94
2023-05-14T05:19:43.560Z,16.00
2023-05-14T05:22:14.008Z,16.37
2023-05-14T05:24:40.421Z,16.49
2023-05-14T05:27:06.863Z,16.32
2023-05-14T05:29:36.535Z,16.61
2023-05-14T05:32:06.734Z,16.84
2023-05-14T05:34:39.412Z,17.06
2023-05-14T05:37:12.632Z,17.01
2023-05-14T05:39:39.577Z,16.85
2023-05-14T05:42:09.215Z,15.94
2023-05-14T05:44:35.712Z,15.48
2023-05-14T05:47:07.165Z,14.87
2023-05-14T05:49:33.659Z,14.25
2023-05-14T05:52:00.172Z,14.02
2023-05-14T05:54:27.188Z,13.80
2023-05-14T05:57:00.753Z,13.64
2023-05-14T05:59:31.034Z,13.68
2023-05-14T06:02:00.316Z,13.64
2023-05-14T06:04:26.767Z,13.57
2023-05-14T06:06:58.271Z,13.76
2023-05-14T06:09:24.678Z,14.29
2023-05-14T06:11:51.039Z,14.11
2023-05-14T06:14:18.739Z,13.94
2023-05-14T06:16:48.187Z,13.85
2023-05-14T06:19:14.767Z,13.91
2023-05-14T06:21:49.782Z,13.92
2023-05-14T06:24:16.516Z,13.99
2023-05-14T06:26:45.988Z,14.15
2023-05-14T06:29:15.542Z,14.53
2023-05-14T06:31:42.143Z,14.66
2023-05-14T06:34:12.257Z,14.36
2023-05-14T06:36:38.660Z,14.25
2023-05-14T06:39:05.202Z,14.58
2023-05-14T06:41:35.511Z,14.76
2023-05-14T06:44:04.827Z,15.01
2023-05-14T06:46:33.765Z,15.16
2023-05-14T06:49:00.621Z,15.17
2023-05-14T06:51:27.262Z,15.46
2023-05-14T06:54:07.707Z,15.38
2023-05-14T06:56:34.548Z,15.53
2023-05-14T06:59:06.782Z,16.04
2023-05-14T07:01:33.229Z,15.73
2023-05-14T07:03:59.636Z,15.46
2023-05-14T07:06:35.607Z,15.98
2023-05-14T07:09:02.071Z,16.21
2023-05-14T07:11:28.987Z,16.21
2023-05-14T07:13:57.849Z,16.10
2023-05-14T07:16:24.260Z,16.30
2023-05-14T07:21:38.520Z,16.36
2023-05-14T07:24:05.445Z,16.15
2023-05-14T07:26:31.848Z,16.48
2023-05-14T07:29:07.289Z,16.42
2023-05-14T07:31:33.851Z,16.58
2023-05-14T07:34:00.643Z,16.94
2023-05-14T07:36:31.477Z,16.84
2023-05-14T07:38:57.927Z,16.99
2023-05-14T07:41:27.836Z,16.83
2023-05-14T07:43:57.201Z,16.92
2023-05-14T07:46:31.316Z,17.20
2023-05-14T07:49:00.781Z,17.61
2023-05-14T07:51:33.779Z,17.50
2023-05-14T07:54:03.123Z,17.50
2023-05-14T07:56:29.452Z,17.34
2023-05-14T07:58:58.585Z,17.35
2023-05-14T08:01:25.091Z,17.45
2023-05-14T08:03:51.497Z,17.79
2023-05-14T08:06:22.813Z,17.81
2023-05-14T08:08:49.221Z,17.82
2023-05-14T08:11:15.655Z,17.62
2023-05-14T08:13:47.043Z,17.65
2023-05-14T08:16:13.418Z,17.58
2023-05-14T08:18:40.216Z,17.35
2023-05-14T08:21:09.153Z,17.44
2023-05-14T08:23:38.948Z,17.66
2023-05-14T08:26:05.406Z,18.15
2023-05-14T08:28:35.304Z,18.34
2023-05-14T08:31:01.688Z,18.44
2023-05-14T08:33:28.087Z,18.40
2023-05-14T08:35:58.725Z,18.63
2023-05-14T08:38:25.362Z,18.67
2023-05-14T08:41:12.760Z,18.93
2023-05-14T08:46:40.302Z,19.24
2023-05-14T08:49:31.945Z,19.59
2023-05-14T08:51:59.812Z,19.87
2023-05-14T08:54:29.987Z,19.90
2023-05-14T08:57:00.105Z,19.52
2023-05-14T08:59:29.838Z,19.40
2023-05-14T09:02:02.733Z,19.58
2023-05-14T09:04:31.400Z,19.72
2023-05-14T09:07:02.010Z,19.31
2023-05-14T09:09:31.130Z,19.10
2023-05-14T09:12:05.970Z,19.11
2023-05-14T09:20:00.146Z,19.33
2023-05-14T09:22:32.980Z,19.26
2023-05-14T09:25:05.288Z,19.23
2023-05-14T09:27:35.583Z,19.58
2023-05-14T09:30:14.576Z,19.47
2023-05-14T09:32:46.240Z,19.04
2023-05-14T09:35:19.399Z,19.36
2023-05-14T09:37:51.966Z,19.59
2023-05-14T09:40:23.838Z,19.36
2023-05-14T09:42:59.017Z,19.45
2023-05-14T09:45:25.459Z,19.57
2023-05-14T09:50:46.015Z,20.05
2023-05-14T09:53:15.366Z,20.25
2023-05-14T09:55:47.703Z,20.16
2023-05-14T09:58:24.331Z,20.16
2023-05-14T10:00:51.681Z,20.14
2023-05-14T10:06:14.050Z,20.45
2023-05-14T10:08:45.916Z,20.18
2023-05-14T10:11:37.224Z,20.38
2023-05-14T10:17:19.065Z,20.87
2023-05-14T10:19:54.096Z,20.62
2023-05-14T10:22:26.748Z,20.64
2023-05-14T10:24:59.676Z,20.65
2023-05-14T10:27:30.337Z,20.62
2023-05-14T10:30:00.510Z,20.30
2023-05-14T10:32:33.046Z,20.52
2023-05-14T10:35:04.280Z,20.74
2023-05-14T10:37:30.860Z,20.96
2023-05-14T10:39:57.138Z,20.96
2023-05-14T10:42:27.748Z,20.91
2023-05-14T10:44:58.749Z,20.77
2023-05-14T10:47:30.378Z,21.01
2023-05-14T10:49:58.841Z,20.89
2023-05-14T10:52:29.162Z,21.05
2023-05-14T10:57:52.605Z,21.26
2023-05-14T11:00:21.496Z,21.39
2023-05-14T11:02:48.030Z,21.44
2023-05-14T11:05:19.889Z,21.17
2023-05-14T11:07:50.270Z,21.69
2023-05-14T11:10:21.292Z,22.03
2023-05-14T11:12:52.022Z,22.01
2023-05-14T11:15:31.754Z,22.18
2023-05-14T11:17:58.160Z,21.96
2023-05-14T11:20:27.894Z,21.90
2023-05-14T11:22:57.228Z,22.06
2023-05-14T11:25:28.212Z,22.68
2023-05-14T11:28:00.725Z,22.91
2023-05-14T11:33:11.966Z,22.73
2023-05-14T11:35:46.486Z,22.46
2023-05-14T11:38:24.186Z,22.55
2023-05-14T11:43:38.702Z,23.06
2023-05-14T11:46:08.433Z,22.48
2023-05-14T11:48:34.985Z,22.10
2023-05-14T11:51:05.885Z,22.06
2023-05-14T11:53:32.454Z,22.19
2023-05-14T11:55:59.090Z,22.05
2023-05-14T11:58:29.042Z,22.26
2023-05-14T12:00:55.737Z,22.20
2023-05-14T12:06:11.124Z,22.65
2023-05-14T12:08:40.306Z,22.43
2023-05-14T12:11:06.998Z,22.34
2023-05-14T12:13:37.194Z,22.38
2023-05-14T12:16:06.709Z,22.71
2023-05-14T12:18:34.731Z,22.82
2023-05-14T12:21:08.369Z,22.84
2023-05-14T12:23:38.497Z,22.83
2023-05-14T12:26:10.889Z,22.90
2023-05-14T12:28:43.269Z,23.01
2023-05-14T12:33:39.207Z,23.00
2023-05-14T12:39:03.437Z,22.85
2023-05-14T12:41:33.188Z,22.64
2023-05-14T12:44:00.154Z,23.12
2023-05-14T12:46:31.821Z,23.29
2023-05-14T12:49:00.633Z,23.66
2023-05-14T12:51:27.121Z,23.14
2023-05-14T12:54:07.795Z,23.53
2023-05-14T12:56:35.245Z,23.77
2023-05-14T12:59:07.644Z,23.69
2023-05-14T13:01:34.110Z,23.42
2023-05-14T13:04:04.807Z,23.43
2023-05-14T13:06:31.733Z,23.52
2023-05-14T13:09:07.483Z,23.42
2023-05-14T13:11:34.152Z,23.64
2023-05-14T13:14:02.249Z,23.53
2023-05-14T13:16:29.646Z,23.69
2023-05-14T13:18:59.474Z,23.73
2023-05-14T13:21:33.587Z,23.71
2023-05-14T13:24:03.339Z,23.57
2023-05-14T13:26:29.775Z,23.97
2023-05-14T13:29:02.184Z,24.21
2023-05-14T13:31:30.210Z,24.12
2023-05-14T13:34:01.961Z,23.82
2023-05-14T13:36:32.446Z,23.63
2023-05-14T13:39:03.001Z,23.52
2023-05-14T13:41:35.656Z,23.42
2023-05-14T13:44:06.126Z,23.29
2023-05-14T13:46:36.520Z,23.41
2023-05-14T13:49:08.062Z,23.28
2023-05-14T13:51:37.550Z,23.78
2023-05-14T13:54:12.095Z,24.23
2023-05-14T13:56:38.512Z,24.37
2023-05-14T13:59:04.937Z,24.46
2023-05-14T14:01:36.294Z,24.45
2023-05-14T14:04:04.245Z,24.33
2023-05-14T14:06:35.340Z,24.33
2023-05-14T14:09:05.296Z,24.33
2023-05-14T14:11:39.972Z,24.13
2023-05-14T14:14:12.465Z,24.07
2023-05-14T14:16:41.272Z,23.87
2023-05-14T14:19:10.750Z,23.78
2023-05-14T14:21:42.214Z,23.39
2023-05-14T14:24:22.505Z,23.21
2023-05-14T14:26:48.875Z,23.47
2023-05-14T14:29:17.985Z,23.57
2023-05-14T14:31:44.639Z,23.63
2023-05-14T14:34:14.649Z,23.51
2023-05-14T14:36:41.012Z,23.38
2023-05-14T14:39:07.356Z,23.15
2023-05-14T14:41:38.028Z,23.20
2023-05-14T14:44:05.496Z,23.21
2023-05-14T14:46:39.898Z,23.16
2023-05-14T14:49:09.792Z,23.10
2023-05-14T14:54:24.100Z,23.56
2023-05-14T14:56:53.760Z,23.55
2023-05-14T14:59:20.231Z,23.06
2023-05-14T15:01:49.734Z,22.68
2023-05-14T15:04:20.070Z,22.48
2023-05-14T15:06:50.494Z,22.49
2023-05-14T15:09:19.958Z,22.23
2023-05-14T15:11:47.129Z,22.27
2023-05-14T15:14:24.052Z,22.48
2023-05-14T15:16:52.856Z,22.67
2023-05-14T15:19:22.230Z,22.80
2023-05-14T15:21:48.656Z,22.46
2023-05-14T15:24:17.696Z,22.25
2023-05-14T15:26:46.232Z,22.63
2023-05-14T15:29:12.686Z,22.89
2023-05-14T15:31:45.228Z,23.00
2023-05-14T15:34:11.671Z,22.65
2023-05-14T15:36:38.078Z,22.63
2023-05-14T15:39:17.471Z,22.42
2023-05-14T15:41:43.912Z,22.29
2023-05-14T15:44:20.434Z,22.35
2023-05-14T15:46:51.805Z,22.43
2023-05-14T15:49:21.470Z,22.44
2023-05-14T15:51:55.365Z,22.47
2023-05-14T15:54:26.201Z,22.25
2023-05-14T15:56:53.657Z,22.12
2023-05-14T15:59:20.112Z,22.27
2023-05-14T16:01:46.572Z,22.33
2023-05-14T16:04:12.952Z,22.10
2023-05-14T16:07:04.166Z,21.57
2023-05-14T16:09:30.728Z,21.41
2023-05-14T16:11:57.235Z,21.74
2023-05-14T16:14:31.977Z,21.97
2023-05-14T16:16:58.445Z,21.89
2023-05-14T16:19:30.869Z,21.89
2023-05-14T16:21:57.257Z,21.68
2023-05-14T16:24:23.908Z,21.85
2023-05-14T16:26:52.660Z,21.76
2023-05-14T16:29:22.345Z,21.51
2023-05-14T16:31:48.809Z,21.38
2023-05-14T16:34:24.370Z,21.35
2023-05-14T16:36:50.890Z,21.31
2023-05-14T16:39:17.553Z,21.19
2023-05-14T16:41:44.019Z,21.14
2023-05-14T16:44:10.602Z,21.11
2023-05-14T16:46:37.042Z,21.09
2023-05-14T16:49:06.895Z,21.01
2023-05-14T16:51:33.559Z,20.99
2023-05-14T16:53:59.979Z,20.99
2023-05-14T16:56:39.680Z,20.89
2023-05-14T16:59:10.242Z,20.79
2023-05-14T17:01:41.764Z,20.72
2023-05-14T17:04:11.363Z,20.70
2023-05-14T17:06:40.764Z,20.52
2023-05-14T17:09:07.717Z,20.36
2023-05-14T17:14:21.022Z,20.09
2023-05-14T17:16:47.449Z,20.00
2023-05-14T17:19:13.926Z,20.03
2023-05-14T17:21:54.370Z,19.81
2023-05-14T17:24:26.805Z,19.65
2023-05-14T17:26:53.261Z,19.54
2023-05-14T17:29:19.697Z,19.42
2023-05-14T17:31:46.117Z,19.24
2023-05-14T17:34:12.613Z,19.13
2023-05-14T17:36:42.837Z,19.08
2023-05-14T17:39:19.736Z,18.95
2023-05-14T17:41:46.179Z,18.95
2023-05-14T17:44:15.945Z,18.71
2023-05-14T17:46:45.803Z,18.55
2023-05-14T17:49:15.659Z,18.44
2023-05-14T17:51:42.340Z,18.44
2023-05-14T17:54:12.619Z,18.37
2023-05-14T17:56:42.038Z,18.29
2023-05-14T17:59:11.206Z,18.20
2023-05-14T18:01:37.657Z,18.13
2023-05-14T18:04:14.869Z,17.87
2023-05-14T18:06:48.878Z,17.69
2023-05-14T18:09:18.098Z,17.57
2023-05-14T18:11:52.816Z,17.66
2023-05-14T18:14:24.158Z,17.67
2023-05-14T18:16:51.198Z,17.55
2023-05-14T18:19:19.922Z,17.56
2023-05-14T18:21:48.067Z,17.50
2023-05-14T18:24:18.731Z,17.25
2023-05-14T18:26:45.135Z,17.10
2023-05-14T18:29:11.597Z,16.97
2023-05-14T18:31:43.329Z,16.86
2023-05-14T18:34:09.732Z,16.85
2023-05-14T18:36:36.132Z,16.63
2023-05-14T18:39:10.932Z,16.60
2023-05-14T18:41:37.370Z,16.42
2023-05-14T18:44:03.795Z,16.22
2023-05-14T18:46:35.129Z,16.08
2023-05-14T18:49:01.570Z,16.04
2023-05-14T18:51:30.769Z,16.03
2023-05-14T18:54:00.983Z,16.03
2023-05-14T18:56:27.508Z,15.81
2023-05-14T18:58:57.410Z,15.71
2023-05-14T19:01:26.609Z,15.64
2023-05-14T19:04:00.517Z,15.62
2023-05-14T19:06:27.946Z,15.43
2023-05-14T19:08:54.378Z,15.36
2023-05-14T19:11:22.865Z,15.26
2023-05-14T19:13:52.109Z,15.20
2023-05-14T19:16:18.953Z,15.16
2023-05-14T19:18:45.652Z,15.16
2023-05-14T19:21:15.155Z,15.10
2023-05-14T19:23:41.716Z,15.07
2023-05-14T19:26:13.183Z,14.96
2023-05-14T19:28:39.843Z,14.84
2023-05-14T19:31:06.312Z,14.74
2023-05-14T19:33:33.080Z,14.66
2023-05-14T19:36:06.807Z,14.63
2023-05-14T19:38:39.277Z,14.63
2023-05-14T19:41:08.773Z,14.58
2023-05-14T19:43:58.936Z,14.47
2023-05-14T19:46:28.035Z,14.38
2023-05-14T19:48:54.501Z,14.35
2023-05-14T19:51:25.006Z,14.27
2023-05-14T19:53:54.516Z,14.25
2023-05-14T19:56:24.743Z,14.21
2023-05-14T19:58:55.193Z,14.12
2023-05-14T20:01:21.666Z,14.06
2023-05-14T20:03:51.174Z,13.94
2023-05-14T20:06:20.846Z,14.00
2023-05-14T20:08:47.312Z,13.99
2023-05-14T20:11:16.527Z,13.93
2023-05-14T20:13:45.796Z,13.90
2023-05-14T20:16:13.530Z,13.90
2023-05-14T20:18:46.151Z,13.89
2023-05-14T20:21:12.664Z,13.89
2023-05-14T20:23:42.292Z,13.87
2023-05-14T20:26:11.870Z,13.85
2023-05-14T20:28:38.226Z,13.85
2023-05-14T20:31:09.528Z,13.76
2023-05-14T20:33:36.057Z,13.71
2023-05-14T20:36:12.180Z,13.71
2023-05-14T20:38:38.596Z,13.68
2023-05-14T20:41:05.005Z,13.69
2023-05-14T20:43:34.472Z,13.68
2023-05-14T20:46:05.739Z,13.65
2023-05-14T20:48:38.564Z,13.60
2023-05-14T20:51:06.463Z,13.55
2023-05-14T20:53:35.669Z,13.53
2023-05-14T20:56:02.315Z,13.49
2023-05-14T20:58:31.727Z,13.45
2023-05-14T21:00:59.808Z,13.44
2023-05-14T21:03:27.053Z,13.45
2023-05-14T21:05:55.930Z,13.42
2023-05-14T21:08:26.065Z,13.40
2023-05-14T21:10:55.007Z,13.37
2023-05-14T21:13:21.377Z,13.37
2023-05-14T21:18:44.834Z,13.36
2023-05-14T21:21:17.613Z,13.38
2023-05-14T21:23:43.930Z,13.36
2023-05-14T21:26:10.351Z,13.34
2023-05-14T21:28:39.696Z,13.33
2023-05-14T21:31:08.871Z,13.35
2023-05-14T21:33:35.486Z,13.36
2023-05-14T21:36:08.828Z,13.39
2023-05-14T21:38:35.513Z,13.41
2023-05-14T21:41:07.508Z,13.38
2023-05-14T21:43:36.844Z,13.37
2023-05-14T21:46:05.807Z,13.35
2023-05-14T21:48:32.294Z,13.32
2023-05-14T21:50:58.763Z,13.30
2023-05-14T21:53:25.288Z,13.28
2023-05-14T21:58:38.351Z,13.23
2023-05-14T22:01:04.884Z,13.22
2023-05-14T22:03:31.392Z,13.23
2023-05-14T22:06:01.007Z,13.23
2023-05-14T22:08:30.956Z,13.21
2023-05-14T22:11:04.996Z,13.17
2023-05-14T22:13:31.344Z,13.12
2023-05-14T22:16:09.318Z,13.11
2023-05-14T22:18:40.105Z,13.10
2023-05-14T22:21:10.568Z,13.05
2023-05-14T22:23:37.465Z,13.02
2023-05-14T22:26:04.154Z,13.04
2023-05-14T22:28:33.585Z,13.04
2023-05-14T22:31:04.116Z,13.05
2023-05-14T22:36:19.469Z,13.04
2023-05-14T22:38:46.177Z,13.00
2023-05-14T22:41:12.640Z,13.01
2023-05-14T22:46:25.301Z,13.03
2023-05-14T22:48:51.765Z,13.04
2023-05-14T22:51:18.237Z,13.04
2023-05-14T22:53:45.342Z,13.02
2023-05-14T22:56:18.846Z,13.03
2023-05-14T22:58:46.401Z,13.01
2023-05-14T23:01:13.048Z,12.96
2023-05-14T23:03:42.267Z,12.96
2023-05-14T23:06:17.073Z,12.98
2023-05-14T23:08:47.675Z,12.94
2023-05-14T23:11:15.141Z,12.92
2023-05-14T23:13:48.652Z,12.92
2023-05-14T23:16:18.046Z,12.92
2023-05-14T23:18:47.232Z,12.90
2023-05-14T23:21:14.194Z,12.91
2023-05-14T23:26:26.785Z,12.93
2023-05-14T23:28:56.268Z,12.94
2023-05-14T23:31:22.986Z,12.93
2023-05-14T23:33:49.600Z,12.94
2023-05-14T23:36:18.882Z,12.96
2023-05-14T23:38:45.299Z,12.96
2023-05-14T23:41:21.670Z,12.94
2023-05-14T23:43:49.183Z,12.95
2023-05-14T23:46:18.353Z,12.98
2023-05-14T23:48:44.791Z,12.95
2023-05-14T23:51:11.444Z,12.96
2023-05-14T23:53:38.100Z,12.95
2023-05-14T23:56:04.608Z,12.94
2023-05-14T23:58:31.191Z,12.95
